Notice: Undefined index: language in /home/u908952976/domains/airgaviota-va.com/public_html/vam/index.php on line 25
AirGaviota-VA

... VIRTUAL FLIGHT...OUR PASSION



 METAR AND TAF INFORMATION

Deprecated: The each() function is deprecated. This message will be suppressed on further calls in /home/u908952976/domains/airgaviota-va.com/public_html/vam/helpers/get_metar.php on line 20
METAR FOR TNCM
ADDS - METARS form results

(1827 UTC 17 June 2021)
Data provider http://aviationweather.gov/metar/data/
 
METAR text: TNCM 171800Z 09019G32KT 9999 SCT016 31/23 Q1017 NOSIG
Conditions at: TNCM (ST MAARTEN JULIA, VI) observed 1800 UTC 17 June 2021
Temperature: 31.0°C (88°F)
Dewpoint: 23.0°C (73°F) [RH = 63%]
Pressure (altimeter): 30.03 inches Hg (1017.0 mb)
Winds: from the E (90 degrees) at 22 MPH (19 knots; 9.8 m/s)
gusting to 37 MPH (32 knots; 16.5 m/s)
Visibility: 6 or more miles (10+ km)
Ceiling: at least 12,000 feet AGL
Clouds: scattered clouds at 1600 feet AGL
Weather: no significant weather observed at this time

METAR text: TNCM 171728Z 10017G30KT 070V130 9999 SCT017 31/23 Q1018 NOSIG
Conditions at: TNCM (ST MAARTEN JULIA, VI) observed 1728 UTC 17 June 2021
Temperature: 31.0°C (88°F)
Dewpoint: 23.0°C (73°F) [RH = 63%]
Pressure (altimeter): 30.06 inches Hg (1018.0 mb)
Winds: from the E (100 degrees) at 20 MPH (17 knots; 8.7 m/s)
gusting to 34 MPH (30 knots; 15.4 m/s)
Visibility: 6 or more miles (10+ km)
Ceiling: at least 12,000 feet AGL
Clouds: scattered clouds at 1700 feet AGL
Weather: no significant weather observed at this time

Forecast for: TNCM (ST MAARTEN JULIA, VI)
Text: TNCM 171734Z 1718/1818 10018G25KT P6SM VCSH SCT016 SCT040
Forecast period: 1800 UTC 17 June 2021 to 1800 UTC 18 June 2021
Forecast type: FROM: standard forecast or significant change
Winds: from the E (100 degrees) at 21 MPH (18 knots; 9.3 m/s)
gusting to 29 MPH (25 knots; 12.9 m/s)
Visibility: 6 or more miles (10+ km)
Ceiling: at least 12,000 feet AGL
Clouds: scattered clouds at 1600 feet AGL
scattered clouds at 4000 feet AGL
Weather: VCSH  (showers in vicinity)

 AIRPORT MAP

 RUNWAY INFORMATION
Runway 09 Runway length 7708 ft Runway width 148 ft
Runway elevation 11 ft Runway displaced threshold 162 ft Runway heading 81
Runway 27 Runway length 7708 ft Runway width 148 ft
Runway elevation 11 ft Runway displaced threshold 394 ft Runway heading 261
Runway 10 Runway length 7152 ft Runway width 148 ft
Runway elevation 12 ft Runway displaced threshold 0 ft Runway heading 81
Runway 28 Runway length 7152 ft Runway width 148 ft
Runway elevation 9 ft Runway displaced threshold 0 ft Runway heading 261

 AIRPORT FREQUENCIES
Type APP Name JULIANA AP Frequency 128.95 MHZ
Type TWR Name JULIANA TW Frequency 118.7 MHZ

 AIRPORT NEAR NAVIGATION AIDS
Type NDB Name St.mMarten Frequency 284 KHZ
Type VOR-DME Name St.mMarten Frequency 113000 KHZ